createdAt,value
2022-09-04T00:00:24.734Z,13.5
2022-09-04T00:05:06.043Z,13.5
2022-09-04T00:09:47.343Z,13.4
2022-09-04T00:14:28.654Z,13.4
2022-09-04T00:19:10.963Z,13.4
2022-09-04T00:23:53.272Z,13.3
2022-09-04T00:28:35.485Z,13.2
2022-09-04T00:33:17.788Z,13.1
2022-09-04T00:38:00.126Z,13.2
2022-09-04T00:42:42.311Z,13
2022-09-04T00:47:24.616Z,13.2
2022-09-04T00:52:06.925Z,13.2
2022-09-04T00:56:49.234Z,12.9
2022-09-04T01:01:31.495Z,12.9
2022-09-04T01:06:13.770Z,12.9
2022-09-04T01:10:56.069Z,13
2022-09-04T01:15:37.390Z,13
2022-09-04T01:20:19.578Z,12.9
2022-09-04T01:25:01.885Z,12.9
2022-09-04T01:29:44.256Z,12.7
2022-09-04T01:34:26.405Z,12.8
2022-09-04T01:39:08.711Z,12.6
2022-09-04T01:43:51.018Z,12.4
2022-09-04T01:48:32.347Z,12.5
2022-09-04T01:53:13.660Z,12.5
2022-09-04T01:57:55.863Z,12.6
2022-09-04T02:02:37.149Z,12.6
2022-09-04T02:07:18.461Z,12.5
2022-09-04T02:12:00.768Z,12.3
2022-09-04T02:16:43.076Z,12.5
2022-09-04T02:21:25.288Z,12.4
2022-09-04T02:26:07.594Z,12.5
2022-09-04T02:30:49.920Z,12.3
2022-09-04T02:35:32.238Z,12.2
2022-09-04T02:40:14.425Z,12
2022-09-04T02:44:56.728Z,12
2022-09-04T02:49:39.042Z,12
2022-09-04T02:54:21.245Z,12
2022-09-04T02:59:03.557Z,12
2022-09-04T03:03:45.863Z,12.1
2022-09-04T03:08:27.175Z,12.1
2022-09-04T03:13:09.424Z,12.2
2022-09-04T03:17:51.692Z,12.1
2022-09-04T03:22:33.999Z,12.2
2022-09-04T03:27:16.318Z,12.2
2022-09-04T03:31:58.522Z,12.2
2022-09-04T03:36:40.831Z,12
2022-09-04T03:41:22.156Z,12.1
2022-09-04T03:46:03.444Z,12.2
2022-09-04T03:50:45.751Z,12.2
2022-09-04T03:55:27.058Z,12.3
2022-09-04T04:00:08.284Z,12.2
2022-09-04T04:04:50.588Z,12.3
2022-09-04T04:09:32.881Z,12.3
2022-09-04T04:14:15.188Z,12.4
2022-09-04T04:18:57.410Z,12.3
2022-09-04T04:23:39.703Z,12.2
2022-09-04T04:28:22.021Z,12.3
2022-09-04T04:33:04.230Z,12.3
2022-09-04T04:37:46.596Z,12.2
2022-09-04T04:42:28.867Z,12.4
2022-09-04T04:47:11.154Z,12.4
2022-09-04T04:51:53.364Z,12.5
2022-09-04T04:56:35.671Z,12.7
2022-09-04T05:01:16.979Z,12.7
2022-09-04T05:05:59.296Z,12.6
2022-09-04T05:10:41.497Z,12.6
2022-09-04T05:15:23.844Z,12.8
2022-09-04T05:20:06.076Z,12.7
2022-09-04T05:24:48.357Z,12.8
2022-09-04T05:29:30.671Z,12.9
2022-09-04T05:34:11.975Z,12.9
2022-09-04T05:38:53.376Z,13.2
2022-09-04T05:43:35.491Z,13.4
2022-09-04T05:48:17.801Z,13.6
2022-09-04T05:52:59.110Z,13.8
2022-09-04T05:57:40.417Z,13.7
2022-09-04T06:02:22.721Z,13.8
2022-09-04T06:07:04.962Z,13.7
2022-09-04T06:11:47.275Z,14
2022-09-04T06:16:29.547Z,13.9
2022-09-04T06:21:11.756Z,14
2022-09-04T06:25:54.070Z,14
2022-09-04T06:30:36.377Z,14
2022-09-04T06:35:18.584Z,14.1
2022-09-04T06:40:00.904Z,14
2022-09-04T06:44:43.231Z,14.3
2022-09-04T06:49:25.515Z,14.4
2022-09-04T06:54:07.729Z,14.8
2022-09-04T06:58:49.029Z,14.9
2022-09-04T07:03:31.337Z,15.2
2022-09-04T07:08:13.652Z,15.1
2022-09-04T07:12:55.858Z,15.4
2022-09-04T07:17:38.166Z,15.6
2022-09-04T07:22:20.502Z,15.6
2022-09-04T07:27:02.686Z,15.8
2022-09-04T07:31:43.993Z,16.1
2022-09-04T07:36:25.303Z,16.3
2022-09-04T07:41:06.614Z,16.4
2022-09-04T07:45:47.914Z,16.9
2022-09-04T07:50:30.224Z,17.7
2022-09-04T07:55:12.532Z,18.1
2022-09-04T07:59:54.742Z,18.3
2022-09-04T08:04:37.051Z,18.2
2022-09-04T08:09:19.383Z,18.8
2022-09-04T08:14:01.611Z,19.2
2022-09-04T08:18:43.878Z,19.9
2022-09-04T08:23:26.224Z,20.1
2022-09-04T08:28:08.407Z,20.2
2022-09-04T08:32:50.715Z,20.3
2022-09-04T08:37:33.036Z,20.5
2022-09-04T08:42:15.227Z,20.6
2022-09-04T08:46:56.534Z,20.8
2022-09-04T08:51:38.857Z,21.3
2022-09-04T08:56:21.155Z,20.8
2022-09-04T09:01:03.369Z,22.1
2022-09-04T09:05:45.673Z,22.1
2022-09-04T09:10:27.978Z,21.7
2022-09-04T09:15:10.189Z,22.5
2022-09-04T09:19:51.496Z,22.2
2022-09-04T09:24:32.807Z,22.7
2022-09-04T09:29:15.114Z,23.5
2022-09-04T09:33:57.421Z,22.7
2022-09-04T09:38:39.633Z,22
2022-09-04T09:43:21.944Z,22.5
2022-09-04T09:48:04.263Z,23.3
2022-09-04T09:52:46.525Z,25.5
2022-09-04T09:57:28.771Z,27
2022-09-04T10:02:11.085Z,27.5
2022-09-04T10:06:53.388Z,29.9
2022-09-04T10:11:35.599Z,31.7
2022-09-04T10:16:17.912Z,31.3
2022-09-04T10:21:00.239Z,31.5
2022-09-04T10:25:41.525Z,31.7
2022-09-04T10:30:23.737Z,32.5
2022-09-04T10:35:06.070Z,32.7
2022-09-04T10:39:48.350Z,29.3
2022-09-04T10:44:30.579Z,26.1
2022-09-04T10:49:12.874Z,25.3
2022-09-04T10:53:55.195Z,25.2
2022-09-04T10:58:36.493Z,24.9
2022-09-04T11:03:17.837Z,24.1
2022-09-04T11:08:00.017Z,23.9
2022-09-04T11:12:42.328Z,23.6
2022-09-04T11:17:24.640Z,23.7
2022-09-04T11:22:06.966Z,23.9
2022-09-04T11:26:49.156Z,23.4
2022-09-04T11:31:31.469Z,23.4
2022-09-04T11:36:13.769Z,23.6
2022-09-04T11:40:55.981Z,23.8
2022-09-04T11:45:38.287Z,28.6
2022-09-04T11:50:20.606Z,32.7
2022-09-04T11:55:02.803Z,35.1
2022-09-04T11:59:45.115Z,35.3
2022-09-04T12:04:26.497Z,35.7
2022-09-04T12:09:08.753Z,35.8
2022-09-04T12:13:51.039Z,29
2022-09-04T12:18:33.248Z,28.3
2022-09-04T12:23:15.628Z,28.3
2022-09-04T12:27:57.890Z,27.1
2022-09-04T12:32:40.081Z,26.5
2022-09-04T12:37:22.432Z,25.4
2022-09-04T12:42:03.712Z,25.6
2022-09-04T12:46:45.022Z,25.3
2022-09-04T12:51:26.334Z,26.4
2022-09-04T12:56:07.625Z,28
2022-09-04T13:00:48.932Z,29.8
2022-09-04T13:05:30.259Z,33.8
2022-09-04T13:10:12.565Z,32
2022-09-04T13:14:54.818Z,29.9
2022-09-04T13:19:37.113Z,29.5
2022-09-04T13:24:19.381Z,27.5
2022-09-04T13:29:01.587Z,27.6
2022-09-04T13:33:43.918Z,27.8
2022-09-04T13:38:26.209Z,28.3
2022-09-04T13:43:08.523Z,31.4
2022-09-04T13:47:50.737Z,36.6
2022-09-04T13:52:33.055Z,37
2022-09-04T13:57:15.355Z,39.1
2022-09-04T14:01:57.654Z,37.4
2022-09-04T14:06:39.865Z,38.4
2022-09-04T14:11:21.171Z,38.4
2022-09-04T14:16:03.485Z,38.8
2022-09-04T14:20:45.904Z,39.8
2022-09-04T14:25:28.005Z,38.9
2022-09-04T14:30:10.311Z,38.3
2022-09-04T14:34:52.617Z,37.6
2022-09-04T14:39:33.938Z,39.4
2022-09-04T14:44:15.241Z,39.1
2022-09-04T14:48:56.545Z,37.1
2022-09-04T14:53:37.853Z,33.8
2022-09-04T14:58:20.208Z,32.3
2022-09-04T15:03:02.375Z,31.6
2022-09-04T15:07:44.688Z,31.4
2022-09-04T15:12:26.992Z,30
2022-09-04T15:17:09.305Z,29.6
2022-09-04T15:21:51.509Z,29.5
2022-09-04T15:26:33.822Z,30.1
2022-09-04T15:31:16.129Z,29.9
2022-09-04T15:35:58.340Z,29.2
2022-09-04T15:40:40.648Z,31
2022-09-04T15:45:22.961Z,32
2022-09-04T15:50:05.271Z,29.4
2022-09-04T15:54:46.479Z,29.5
2022-09-04T15:59:28.788Z,27.9
2022-09-04T16:04:11.110Z,27.5
2022-09-04T16:08:53.419Z,27.1
2022-09-04T16:13:35.634Z,26.4
2022-09-04T16:18:17.927Z,26.5
2022-09-04T16:23:00.240Z,26.1
2022-09-04T16:27:41.543Z,25
2022-09-04T16:32:22.853Z,25
2022-09-04T16:37:04.180Z,24.9
2022-09-04T16:41:45.367Z,24.9
2022-09-04T16:46:27.676Z,24.8
2022-09-04T16:51:09.984Z,24.7
2022-09-04T16:55:52.297Z,24.6
2022-09-04T17:00:34.510Z,24.6
2022-09-04T17:05:16.812Z,24.5
2022-09-04T17:09:59.139Z,24.4
2022-09-04T17:14:41.341Z,24.2
2022-09-04T17:19:23.642Z,24.3
2022-09-04T17:24:05.952Z,24.5
2022-09-04T17:28:48.168Z,24.2
2022-09-04T17:33:30.470Z,24.1
2022-09-04T17:38:12.781Z,23.9
2022-09-04T17:42:54.092Z,23.4
2022-09-04T17:47:36.312Z,23
2022-09-04T17:52:18.607Z,23
2022-09-04T17:57:00.930Z,22.8
2022-09-04T18:01:43.124Z,22.5
2022-09-04T18:06:25.466Z,22.4
2022-09-04T18:11:07.739Z,22.1
2022-09-04T18:15:49.052Z,21.8
2022-09-04T18:20:30.363Z,21.8
2022-09-04T18:25:11.664Z,21.8
2022-09-04T18:29:52.974Z,21.5
2022-09-04T18:34:35.183Z,21
2022-09-04T18:39:17.535Z,21
2022-09-04T18:43:59.804Z,21.1
2022-09-04T18:48:42.010Z,21
2022-09-04T18:53:24.317Z,20.9
2022-09-04T18:58:06.629Z,20.6
2022-09-04T19:07:31.146Z,20.5
2022-09-04T19:12:13.542Z,20.5
2022-09-04T19:16:55.764Z,20.6
2022-09-04T19:21:37.972Z,20.4
2022-09-04T19:26:20.308Z,20.4
2022-09-04T19:31:01.598Z,20.2
2022-09-04T19:35:43.901Z,20.1
2022-09-04T19:40:26.113Z,19.9
2022-09-04T19:45:08.431Z,19.9
2022-09-04T19:49:50.727Z,19.6
2022-09-04T19:54:32.948Z,19.5
2022-09-04T19:59:15.245Z,19.5
2022-09-04T20:03:57.562Z,19.3
2022-09-04T20:08:38.865Z,19.1
2022-09-04T20:13:20.180Z,19
2022-09-04T20:18:02.379Z,18.9
2022-09-04T20:22:44.688Z,19.1
2022-09-04T20:27:26.998Z,18.8
2022-09-04T20:32:09.205Z,18.6
2022-09-04T20:36:51.512Z,18.5
2022-09-04T20:41:33.823Z,18.4
2022-09-04T20:46:16.033Z,18.3
2022-09-04T20:50:58.340Z,18.2
2022-09-04T20:55:40.649Z,18.1
2022-09-04T21:00:22.962Z,18.1
2022-09-04T21:05:05.170Z,18.1
2022-09-04T21:09:47.491Z,18
2022-09-04T21:14:28.780Z,17.8
2022-09-04T21:19:11.092Z,17.5
2022-09-04T21:23:53.295Z,17.5
2022-09-04T21:28:35.645Z,17.5
2022-09-04T21:33:17.915Z,17.4
2022-09-04T21:38:00.131Z,17.3
2022-09-04T21:42:42.469Z,17.1
2022-09-04T21:47:23.735Z,17.1
2022-09-04T21:52:05.058Z,17
2022-09-04T21:56:46.353Z,17
2022-09-04T22:01:27.661Z,16.7
2022-09-04T22:06:09.971Z,16.7
2022-09-04T22:10:52.185Z,16.8
2022-09-04T22:15:34.482Z,16.7
2022-09-04T22:20:16.792Z,16.7
2022-09-04T22:24:59.006Z,16.6
2022-09-04T22:29:41.316Z,16.5
2022-09-04T22:34:23.612Z,16.3
2022-09-04T22:39:05.928Z,16.4
2022-09-04T22:43:48.162Z,16.3
2022-09-04T22:48:30.443Z,16.3
2022-09-04T22:53:12.809Z,16.2
2022-09-04T22:57:54.965Z,16.1
2022-09-04T23:02:36.267Z,16.1
2022-09-04T23:07:18.571Z,16
2022-09-04T23:12:00.881Z,15.9
2022-09-04T23:16:43.098Z,15.9
2022-09-04T23:21:25.418Z,15.8
2022-09-04T23:26:07.711Z,15.7
2022-09-04T23:30:50.030Z,15.7
2022-09-04T23:35:31.323Z,15.6
2022-09-04T23:40:12.553Z,15.6
2022-09-04T23:44:53.838Z,15.4
2022-09-04T23:49:35.147Z,15.5
2022-09-04T23:54:16.450Z,15.5
2022-09-04T23:58:57.756Z,15.3
